Time;durP1;ratioP1;P1;durP2;ratioP2;P2;SDS_P1;SDS_P2;PMS_P1;PMS_P2;Temp;Humidity;BMP_temperature;BMP_pressure;BME280_temperature;BME280_humidity;BME280_pressure;Samples;Min_cycle;Max_cycle;Signal;HPM_P1;HPM_P2
2021/05/19 00:01:46;;;;;;;7.90;2.33;;;;;;;;;;4386471;32;20308;-54
2021/05/19 00:04:12;;;;;;;3.67;2.20;;;;;;;;;;4386458;32;20376;-54
2021/05/19 00:06:37;;;;;;;4.97;2.67;;;;;;;;;;4372381;32;20324;-55
2021/05/19 00:09:05;;;;;;;3.47;2.20;;;;;;;;;;4372295;32;20252;-53
2021/05/19 00:11:32;;;;;;;4.50;1.57;;;;;;;;;;4386319;32;20507;-54
2021/05/19 00:13:57;;;;;;;7.43;2.03;;;;;;;;;;4386368;32;20222;-54
2021/05/19 00:16:23;;;;;;;4.10;2.23;;;;;;;;;;4386229;32;20748;-56
2021/05/19 00:18:48;;;;;;;1.60;1.40;;;;;;;;;;4385292;32;20649;-53
2021/05/19 00:21:14;;;;;;;1.77;1.23;;;;;;;;;;4386527;32;20384;-55
2021/05/19 00:23:39;;;;;;;6.80;1.73;;;;;;;;;;4386635;32;20247;-54
2021/05/19 00:26:05;;;;;;;3.20;1.97;;;;;;;;;;4386216;32;20269;-55
2021/05/19 00:28:31;;;;;;;2.80;1.30;;;;;;;;;;4385740;32;20275;-54
2021/05/19 00:31:00;;;;;;;4.33;2.10;;;;;;;;;;4386031;32;20236;-54
2021/05/19 00:33:25;;;;;;;3.70;1.50;;;;;;;;;;4386138;32;20561;-54
2021/05/19 00:35:51;;;;;;;8.37;1.50;;;;;;;;;;4386339;32;20786;-54
2021/05/19 00:38:18;;;;;;;1.90;1.50;;;;;;;;;;4386119;32;20302;-55
2021/05/19 00:40:44;;;;;;;4.00;1.67;;;;;;;;;;4386950;32;20594;-54
2021/05/19 00:43:09;;;;;;;3.97;2.03;;;;;;;;;;4400308;32;20241;-54
2021/05/19 00:45:35;;;;;;;4.30;3.00;;;;;;;;;;4384925;32;20222;-54
2021/05/19 00:48:00;;;;;;;5.13;2.83;;;;;;;;;;4370212;32;20234;-54
2021/05/19 00:50:28;;;;;;;6.13;2.40;;;;;;;;;;4374302;32;20323;-56
2021/05/19 00:52:54;;;;;;;6.20;2.47;;;;;;;;;;4373789;32;20610;-54
2021/05/19 00:55:20;;;;;;;5.37;2.40;;;;;;;;;;4373911;32;20299;-56
2021/05/19 00:57:49;;;;;;;8.20;2.03;;;;;;;;;;4374183;32;20352;-54
2021/05/19 01:00:17;;;;;;;5.03;2.57;;;;;;;;;;4373771;32;20523;-54
2021/05/19 01:02:42;;;;;;;4.20;2.40;;;;;;;;;;4373547;32;20273;-54
2021/05/19 01:05:14;;;;;;;4.70;2.50;;;;;;;;;;4374198;32;20641;-54
2021/05/19 01:09:34;;;;;;;4.50;2.10;;;;;;;;;;4373997;32;20619;-54
2021/05/19 01:10:25;;;;;;;7.53;2.53;;;;;;;;;;4373940;32;20230;-54
2021/05/19 01:12:50;;;;;;;4.73;2.20;;;;;;;;;;4373501;32;20198;-54
2021/05/19 01:15:16;;;;;;;14.03;2.57;;;;;;;;;;4373736;32;20739;-54
2021/05/19 01:17:43;;;;;;;11.53;3.20;;;;;;;;;;4373523;32;20346;-54
2021/05/19 01:20:09;;;;;;;6.93;2.10;;;;;;;;;;4373475;32;20346;-55
2021/05/19 01:22:35;;;;;;;4.80;2.80;;;;;;;;;;4373402;32;20276;-54
2021/05/19 01:25:00;;;;;;;3.67;1.80;;;;;;;;;;4373584;32;20303;-54
2021/05/19 01:27:26;;;;;;;5.00;2.30;;;;;;;;;;4373398;32;20613;-56
2021/05/19 01:29:55;;;;;;;6.73;2.57;;;;;;;;;;4373411;32;20250;-54
2021/05/19 01:32:22;;;;;;;2.83;2.00;;;;;;;;;;4359555;32;20512;-54
2021/05/19 01:34:48;;;;;;;4.43;2.20;;;;;;;;;;4373282;32;20279;-54
2021/05/19 01:37:15;;;;;;;6.63;2.33;;;;;;;;;;4373503;32;20293;-56
2021/05/19 01:39:41;;;;;;;6.33;3.47;;;;;;;;;;4373613;32;20301;-54
2021/05/19 01:42:08;;;;;;;5.40;2.97;;;;;;;;;;4373207;32;20284;-55
2021/05/19 01:44:34;;;;;;;4.67;3.53;;;;;;;;;;4373446;32;20233;-55
2021/05/19 01:47:02;;;;;;;8.10;2.73;;;;;;;;;;4372298;32;20283;-55
2021/05/19 01:49:30;;;;;;;3.53;2.83;;;;;;;;;;4365236;32;20254;-55
2021/05/19 01:51:58;;;;;;;6.07;2.70;;;;;;;;;;4372218;32;20240;-55
2021/05/19 01:54:23;;;;;;;6.53;2.33;;;;;;;;;;4373555;32;20320;-54
2021/05/19 01:56:49;;;;;;;4.00;2.40;;;;;;;;;;4373041;32;20281;-54
2021/05/19 01:59:16;;;;;;;2.60;2.13;;;;;;;;;;4373256;32;20241;-54
2021/05/19 02:01:42;;;;;;;6.77;2.60;;;;;;;;;;4373295;32;20277;-55
2021/05/19 02:04:13;;;;;;;3.23;2.60;;;;;;;;;;4373253;32;20721;-54
2021/05/19 02:06:55;;;;;;;4.00;2.83;;;;;;;;;;4373136;32;20190;-54
2021/05/19 02:09:22;;;;;;;3.30;2.40;;;;;;;;;;4373342;32;20569;-54
2021/05/19 02:11:48;;;;;;;8.33;2.60;;;;;;;;;;4372785;32;20581;-54
2021/05/19 02:14:14;;;;;;;5.00;2.57;;;;;;;;;;4359544;32;20267;-53
2021/05/19 02:16:40;;;;;;;6.07;2.63;;;;;;;;;;4372766;32;20232;-55
2021/05/19 02:19:08;;;;;;;3.87;2.23;;;;;;;;;;4372958;32;20572;-54
2021/05/19 02:21:33;;;;;;;4.80;2.10;;;;;;;;;;4372876;32;20201;-53
2021/05/19 02:23:59;;;;;;;3.90;2.13;;;;;;;;;;4359254;32;20276;-54
2021/05/19 02:26:26;;;;;;;4.97;2.37;;;;;;;;;;4359370;32;20354;-54
2021/05/19 02:28:51;;;;;;;4.60;2.20;;;;;;;;;;4372908;32;20263;-54
2021/05/19 02:31:17;;;;;;;3.87;2.33;;;;;;;;;;4372616;32;20268;-54
2021/05/19 02:33:42;;;;;;;4.93;2.17;;;;;;;;;;4372513;32;20305;-54
2021/05/19 02:36:08;;;;;;;3.60;1.70;;;;;;;;;;4372382;32;20291;-54
2021/05/19 02:38:35;;;;;;;4.07;1.80;;;;;;;;;;4372663;32;20260;-55
2021/05/19 02:41:02;;;;;;;5.43;1.83;;;;;;;;;;4372438;32;20333;-55
2021/05/19 02:43:27;;;;;;;6.30;2.60;;;;;;;;;;4372639;32;20230;-54
2021/05/19 02:45:53;;;;;;;4.70;2.60;;;;;;;;;;4372886;32;20320;-56
2021/05/19 02:48:18;;;;;;;10.60;1.87;;;;;;;;;;4372552;32;20649;-54
2021/05/19 02:50:44;;;;;;;5.23;1.97;;;;;;;;;;4372191;32;20677;-54
2021/05/19 02:53:09;;;;;;;6.43;1.83;;;;;;;;;;4372478;32;20554;-54
2021/05/19 02:55:35;;;;;;;4.97;3.23;;;;;;;;;;4372444;32;20277;-54
2021/05/19 02:58:01;;;;;;;39.30;25.97;;;;;;;;;;4372573;32;20532;-54
2021/05/19 03:00:27;;;;;;;27.63;20.33;;;;;;;;;;4372164;32;20295;-55
2021/05/19 03:02:52;;;;;;;14.23;6.33;;;;;;;;;;4372064;32;20369;-56
2021/05/19 03:05:17;;;;;;;4.07;2.90;;;;;;;;;;4371878;32;20308;-54
2021/05/19 03:07:44;;;;;;;5.57;2.67;;;;;;;;;;4371910;32;20285;-55
2021/05/19 03:10:11;;;;;;;3.27;2.43;;;;;;;;;;4371975;32;20217;-53
2021/05/19 03:12:36;;;;;;;9.63;3.33;;;;;;;;;;4372284;32;20274;-54
2021/05/19 03:15:03;;;;;;;6.17;2.70;;;;;;;;;;4372457;32;20319;-55
2021/05/19 03:17:29;;;;;;;3.33;2.53;;;;;;;;;;4372141;32;20535;-54
2021/05/19 03:19:54;;;;;;;3.07;2.23;;;;;;;;;;4371889;32;20367;-54
2021/05/19 03:22:20;;;;;;;10.63;3.17;;;;;;;;;;4372036;32;20292;-54
2021/05/19 03:24:45;;;;;;;7.90;5.43;;;;;;;;;;4371713;32;20261;-54
2021/05/19 03:27:11;;;;;;;5.97;2.80;;;;;;;;;;4372262;32;20281;-54
2021/05/19 03:29:36;;;;;;;7.73;2.77;;;;;;;;;;4372128;32;20294;-54
2021/05/19 03:32:03;;;;;;;4.17;2.70;;;;;;;;;;4371867;32;20489;-53
2021/05/19 03:34:29;;;;;;;4.87;2.57;;;;;;;;;;4371724;32;20668;-53
2021/05/19 03:36:54;;;;;;;7.33;2.67;;;;;;;;;;4372204;32;20301;-55
2021/05/19 03:39:20;;;;;;;5.57;2.90;;;;;;;;;;4372058;32;20214;-54
2021/05/19 03:41:45;;;;;;;5.80;3.17;;;;;;;;;;4371667;32;20304;-54
2021/05/19 03:44:11;;;;;;;7.43;2.83;;;;;;;;;;4371982;32;20636;-54
2021/05/19 03:46:37;;;;;;;6.43;2.70;;;;;;;;;;4372037;32;20300;-55
2021/05/19 03:49:03;;;;;;;6.07;2.60;;;;;;;;;;4371811;32;20304;-53
2021/05/19 03:51:29;;;;;;;8.23;2.47;;;;;;;;;;4371672;32;20218;-54
2021/05/19 03:53:55;;;;;;;6.90;3.03;;;;;;;;;;4371972;32;20412;-53
2021/05/19 03:56:21;;;;;;;3.70;2.63;;;;;;;;;;4371619;32;20610;-55
2021/05/19 03:58:47;;;;;;;5.13;2.73;;;;;;;;;;4371709;32;20654;-54
2021/05/19 04:01:13;;;;;;;5.30;2.53;;;;;;;;;;4371675;32;20289;-53
2021/05/19 04:03:38;;;;;;;4.17;2.70;;;;;;;;;;4371781;32;20285;-54
2021/05/19 04:06:04;;;;;;;6.10;3.17;;;;;;;;;;4371956;32;20355;-53
2021/05/19 04:08:40;;;;;;;3.40;2.70;;;;;;;;;;4371559;32;20566;-54
2021/05/19 04:11:07;;;;;;;6.57;3.60;;;;;;;;;;4371662;32;20194;-53
2021/05/19 04:13:33;;;;;;;9.90;2.50;;;;;;;;;;4371311;32;20335;-54
2021/05/19 04:15:59;;;;;;;15.77;4.40;;;;;;;;;;4373198;32;20741;-54
2021/05/19 04:18:25;;;;;;;13.70;3.37;;;;;;;;;;4373910;32;20253;-54
2021/05/19 04:20:51;;;;;;;9.70;3.40;;;;;;;;;;4374185;32;20340;-55
2021/05/19 04:23:16;;;;;;;14.33;3.37;;;;;;;;;;4374174;32;20344;-54
2021/05/19 04:25:43;;;;;;;5.30;2.80;;;;;;;;;;4360710;32;20313;-55
2021/05/19 04:28:09;;;;;;;13.10;3.50;;;;;;;;;;4374328;32;20249;-54
2021/05/19 04:30:35;;;;;;;6.70;3.50;;;;;;;;;;4374149;32;20270;-55
2021/05/19 04:33:01;;;;;;;7.00;4.17;;;;;;;;;;4374097;32;20264;-54
2021/05/19 04:35:26;;;;;;;10.93;4.33;;;;;;;;;;4374038;32;20269;-56
2021/05/19 04:37:52;;;;;;;6.13;4.43;;;;;;;;;;4374062;32;20378;-54
2021/05/19 04:40:17;;;;;;;7.87;3.90;;;;;;;;;;4374149;32;20301;-54
2021/05/19 04:42:43;;;;;;;12.03;3.33;;;;;;;;;;4372500;32;20361;-54
2021/05/19 04:45:09;;;;;;;11.07;4.47;;;;;;;;;;4374130;32;20302;-54
2021/05/19 04:47:35;;;;;;;15.97;3.73;;;;;;;;;;4374077;32;20704;-54
2021/05/19 04:50:00;;;;;;;14.47;3.60;;;;;;;;;;4385391;32;20313;-56
2021/05/19 04:52:26;;;;;;;8.00;2.50;;;;;;;;;;4373673;32;20662;-54
2021/05/19 04:54:51;;;;;;;10.60;2.50;;;;;;;;;;4373845;32;20709;-54
2021/05/19 04:57:18;;;;;;;5.03;2.30;;;;;;;;;;4374238;32;20291;-54
2021/05/19 04:59:43;;;;;;;13.30;3.60;;;;;;;;;;4375716;32;20297;-54
2021/05/19 05:02:09;;;;;;;18.20;2.93;;;;;;;;;;4384983;32;20664;-53
2021/05/19 05:04:35;;;;;;;4.80;2.70;;;;;;;;;;4374078;32;20249;-53
2021/05/19 05:07:03;;;;;;;9.60;2.90;;;;;;;;;;4374117;32;20277;-55
2021/05/19 05:09:28;;;;;;;5.80;2.80;;;;;;;;;;4373545;32;20317;-54
2021/05/19 05:11:54;;;;;;;6.30;2.30;;;;;;;;;;4373720;32;20723;-55
2021/05/19 05:14:21;;;;;;;4.47;2.30;;;;;;;;;;4373872;32;20222;-54
2021/05/19 05:16:47;;;;;;;9.83;2.60;;;;;;;;;;4373613;32;20677;-54
2021/05/19 05:19:12;;;;;;;9.33;2.70;;;;;;;;;;4373594;32;20327;-55
2021/05/19 05:21:38;;;;;;;8.67;2.43;;;;;;;;;;4359811;32;20355;-54
2021/05/19 05:24:04;;;;;;;4.47;2.67;;;;;;;;;;4372383;32;20509;-54
2021/05/19 05:26:29;;;;;;;4.27;2.07;;;;;;;;;;4373364;32;20284;-56
2021/05/19 05:28:55;;;;;;;4.70;2.03;;;;;;;;;;4373492;32;20705;-54
2021/05/19 05:31:20;;;;;;;7.30;1.90;;;;;;;;;;4373498;32;20296;-54
2021/05/19 05:33:46;;;;;;;3.87;2.17;;;;;;;;;;4373227;32;20230;-53
2021/05/19 05:36:12;;;;;;;6.33;2.57;;;;;;;;;;4373129;32;20273;-55
2021/05/19 05:38:38;;;;;;;4.70;2.53;;;;;;;;;;4373467;32;20256;-54
2021/05/19 05:41:03;;;;;;;10.53;2.17;;;;;;;;;;4373483;32;20293;-54
2021/05/19 05:43:29;;;;;;;5.97;2.17;;;;;;;;;;4373112;32;20245;-54
2021/05/19 05:45:54;;;;;;;7.53;2.57;;;;;;;;;;4372830;32;20743;-54
2021/05/19 05:48:20;;;;;;;6.83;2.37;;;;;;;;;;4371777;32;20246;-54
2021/05/19 05:50:45;;;;;;;10.43;2.70;;;;;;;;;;4371899;32;20502;-54
2021/05/19 05:53:11;;;;;;;7.80;2.63;;;;;;;;;;4372396;32;20317;-54
2021/05/19 05:55:36;;;;;;;6.60;2.20;;;;;;;;;;4372026;32;20371;-53
2021/05/19 05:58:01;;;;;;;9.23;3.13;;;;;;;;;;4371786;32;20340;-54
2021/05/19 06:00:27;;;;;;;5.57;2.93;;;;;;;;;;4372083;32;20342;-54
2021/05/19 06:02:53;;;;;;;7.77;3.10;;;;;;;;;;4373016;32;20749;-53
2021/05/19 06:05:18;;;;;;;14.43;3.40;;;;;;;;;;4373028;32;20743;-54
2021/05/19 06:07:43;;;;;;;8.00;4.33;;;;;;;;;;4372966;32;20352;-54
2021/05/19 06:10:10;;;;;;;13.10;5.63;;;;;;;;;;4372864;32;20299;-54
2021/05/19 06:12:35;;;;;;;8.67;4.33;;;;;;;;;;4372884;32;20269;-54
2021/05/19 06:15:02;;;;;;;11.07;4.97;;;;;;;;;;4373076;32;20277;-54
2021/05/19 06:17:27;;;;;;;14.07;4.20;;;;;;;;;;4372961;32;20261;-55
2021/05/19 06:19:53;;;;;;;5.00;3.83;;;;;;;;;;4369726;32;20338;-54
2021/05/19 06:22:19;;;;;;;8.33;2.93;;;;;;;;;;4373128;32;20705;-55
2021/05/19 06:24:45;;;;;;;11.37;3.80;;;;;;;;;;4372735;32;20241;-54
2021/05/19 06:27:11;;;;;;;4.50;2.90;;;;;;;;;;4372633;32;20794;-55
2021/05/19 06:29:37;;;;;;;5.37;2.00;;;;;;;;;;4372483;32;20313;-54
2021/05/19 06:32:03;;;;;;;11.53;2.10;;;;;;;;;;4372431;32;20315;-56
2021/05/19 06:34:28;;;;;;;7.13;2.17;;;;;;;;;;4372144;32;20637;-54
2021/05/19 06:36:54;;;;;;;7.77;2.43;;;;;;;;;;4372629;32;20300;-54
2021/05/19 06:39:21;;;;;;;6.40;2.40;;;;;;;;;;4371999;32;20250;-54
2021/05/19 06:41:48;;;;;;;5.10;2.63;;;;;;;;;;4372389;32;20241;-55
2021/05/19 06:44:17;;;;;;;7.00;2.00;;;;;;;;;;4372700;32;20301;-55
2021/05/19 06:46:44;;;;;;;4.40;2.03;;;;;;;;;;4372471;32;20320;-55
2021/05/19 06:49:10;;;;;;;11.37;2.03;;;;;;;;;;4372471;32;20446;-55
2021/05/19 06:51:36;;;;;;;4.37;1.97;;;;;;;;;;4372185;32;20259;-54
2021/05/19 06:54:01;;;;;;;4.87;1.90;;;;;;;;;;4372487;32;20248;-54
2021/05/19 06:56:27;;;;;;;8.63;2.17;;;;;;;;;;4372357;32;20678;-55
2021/05/19 06:58:53;;;;;;;4.67;2.47;;;;;;;;;;4370829;32;20337;-54
2021/05/19 07:01:18;;;;;;;4.73;2.57;;;;;;;;;;4371326;32;20708;-55
2021/05/19 07:03:44;;;;;;;8.20;1.90;;;;;;;;;;4371057;32;20878;-55
2021/05/19 07:06:10;;;;;;;8.57;2.30;;;;;;;;;;4372310;32;20706;-55
2021/05/19 07:08:35;;;;;;;9.40;2.27;;;;;;;;;;4372223;32;20375;-54
2021/05/19 07:11:01;;;;;;;4.00;2.07;;;;;;;;;;4372044;32;20646;-54
2021/05/19 07:13:29;;;;;;;5.00;1.70;;;;;;;;;;4372195;32;20213;-54
2021/05/19 07:15:56;;;;;;;8.40;2.50;;;;;;;;;;4366628;32;20297;-53
2021/05/19 07:18:22;;;;;;;7.43;3.00;;;;;;;;;;4360639;32;20276;-54
2021/05/19 07:20:48;;;;;;;14.17;2.63;;;;;;;;;;4372124;32;20645;-56
2021/05/19 07:23:14;;;;;;;6.53;2.60;;;;;;;;;;4358292;32;20225;-54
2021/05/19 07:25:40;;;;;;;7.83;2.93;;;;;;;;;;4372094;32;20269;-54
2021/05/19 07:28:07;;;;;;;5.03;2.03;;;;;;;;;;4358651;32;20221;-53
2021/05/19 07:30:33;;;;;;;3.70;2.43;;;;;;;;;;4371960;32;20610;-54
2021/05/19 07:32:59;;;;;;;4.13;2.30;;;;;;;;;;4371953;32;20221;-53
2021/05/19 07:35:26;;;;;;;4.07;2.40;;;;;;;;;;4373777;32;20343;-54
2021/05/19 07:37:51;;;;;;;7.83;1.80;;;;;;;;;;4371549;32;20202;-53
2021/05/19 07:40:17;;;;;;;2.87;1.63;;;;;;;;;;4371710;32;20427;-56
2021/05/19 07:42:43;;;;;;;3.70;1.73;;;;;;;;;;4371222;32;20404;-54
2021/05/19 07:45:09;;;;;;;2.67;1.57;;;;;;;;;;4370733;32;20283;-53
2021/05/19 07:47:35;;;;;;;3.58;1.67;;;;;;;;;;4371710;32;20610;-53
2021/05/19 07:50:00;;;;;;;7.13;2.00;;;;;;;;;;4372390;32;20334;-53
2021/05/19 07:52:26;;;;;;;2.80;1.30;;;;;;;;;;4361184;32;20906;-53
2021/05/19 07:54:52;;;;;;;6.37;1.27;;;;;;;;;;4374904;32;20258;-53
2021/05/19 07:57:38;;;;;;;5.73;1.30;;;;;;;;;;4374840;32;20658;-53
2021/05/19 08:00:13;;;;;;;1.00;0.90;;;;;;;;;;4374723;32;20388;-53
2021/05/19 08:02:39;;;;;;;2.50;1.00;;;;;;;;;;4361026;32;20236;-54
2021/05/19 08:05:05;;;;;;;3.03;1.00;;;;;;;;;;4374394;32;20325;-55
2021/05/19 08:07:30;;;;;;;8.57;1.37;;;;;;;;;;4374999;32;20339;-54
2021/05/19 08:09:56;;;;;;;3.08;1.27;;;;;;;;;;4361002;32;20301;-53
2021/05/19 08:12:21;;;;;;;3.90;1.23;;;;;;;;;;4374895;32;20292;-53
2021/05/19 08:14:46;;;;;;;5.00;1.55;;;;;;;;;;4375234;32;20649;-53
2021/05/19 08:17:12;;;;;;;5.22;1.40;;;;;;;;;;4374748;32;20293;-53
2021/05/19 08:19:38;;;;;;;3.20;1.67;;;;;;;;;;4375042;32;20298;-53
2021/05/19 08:22:03;;;;;;;3.75;2.00;;;;;;;;;;4375218;32;20304;-54
2021/05/19 08:24:29;;;;;;;3.87;1.70;;;;;;;;;;4374588;32;20720;-53
2021/05/19 08:26:54;;;;;;;4.80;1.48;;;;;;;;;;4374803;32;20287;-53
2021/05/19 08:29:20;;;;;;;3.72;1.27;;;;;;;;;;4374654;32;20279;-53
2021/05/19 08:31:45;;;;;;;8.80;2.10;;;;;;;;;;4374283;32;20327;-53
2021/05/19 08:34:11;;;;;;;4.25;1.83;;;;;;;;;;4374403;32;20547;-54
2021/05/19 08:36:37;;;;;;;6.18;1.23;;;;;;;;;;4374446;32;20534;-55
2021/05/19 08:39:03;;;;;;;5.18;1.60;;;;;;;;;;4374284;32;20316;-54
2021/05/19 08:41:28;;;;;;;9.18;1.67;;;;;;;;;;4374017;32;20614;-55
2021/05/19 08:43:54;;;;;;;2.95;1.52;;;;;;;;;;4374574;32;20252;-53
2021/05/19 08:46:19;;;;;;;7.07;2.03;;;;;;;;;;4374229;32;20366;-54
2021/05/19 08:48:51;;;;;;;7.03;1.48;;;;;;;;;;4374073;32;20375;-53
2021/05/19 08:51:17;;;;;;;7.20;1.70;;;;;;;;;;4373783;32;20239;-54
2021/05/19 08:53:42;;;;;;;2.03;1.08;;;;;;;;;;4373840;32;20325;-54
2021/05/19 08:56:11;;;;;;;9.43;1.70;;;;;;;;;;4374090;32;20316;-54
2021/05/19 08:58:36;;;;;;;4.53;1.40;;;;;;;;;;4360050;32;20237;-54
2021/05/19 09:01:02;;;;;;;3.78;1.50;;;;;;;;;;4373631;32;20268;-55
2021/05/19 09:03:32;;;;;;;18.17;2.40;;;;;;;;;;4373544;32;20304;-54
2021/05/19 09:05:58;;;;;;;4.30;1.37;;;;;;;;;;4359831;32;20285;-54
2021/05/19 09:08:23;;;;;;;10.85;1.92;;;;;;;;;;4359197;32;20663;-54
2021/05/19 09:11:01;;;;;;;11.40;1.87;;;;;;;;;;4358621;32;20300;-54
2021/05/19 09:13:41;;;;;;;5.53;1.33;;;;;;;;;;4359002;32;20284;-54
2021/05/19 09:16:09;;;;;;;9.73;1.40;;;;;;;;;;4359270;32;20236;-54
2021/05/19 09:18:43;;;;;;;2.70;1.48;;;;;;;;;;4363641;32;20230;-54
2021/05/19 09:21:08;;;;;;;2.55;1.25;;;;;;;;;;4374108;32;20209;-54
2021/05/19 09:23:47;;;;;;;5.70;1.75;;;;;;;;;;4373291;32;20296;-54
2021/05/19 09:26:13;;;;;;;4.40;1.45;;;;;;;;;;4373656;32;20712;-54
2021/05/19 09:28:38;;;;;;;2.97;1.45;;;;;;;;;;4373608;32;20253;-54
2021/05/19 09:31:19;;;;;;;6.35;1.87;;;;;;;;;;4373061;32;20358;-53
2021/05/19 09:33:44;;;;;;;5.72;1.33;;;;;;;;;;4373400;32;20649;-53
2021/05/19 09:36:21;;;;;;;2.85;1.33;;;;;;;;;;4373017;32;20278;-53
2021/05/19 09:38:52;;;;;;;9.40;3.15;;;;;;;;;;4373233;32;20271;-53
2021/05/19 09:41:24;;;;;;;18.30;6.25;;;;;;;;;;4372659;32;20280;-54
2021/05/19 09:43:54;;;;;;;3.60;1.67;;;;;;;;;;4372865;32;20300;-53
2021/05/19 09:46:26;;;;;;;4.43;1.75;;;;;;;;;;4373228;32;20203;-54
2021/05/19 09:49:19;;;;;;;3.47;1.60;;;;;;;;;;4373052;32;20699;-54
2021/05/19 09:51:48;;;;;;;7.32;1.37;;;;;;;;;;4372305;32;20270;-54
2021/05/19 09:54:26;;;;;;;3.20;1.95;;;;;;;;;;4372943;32;20211;-55
2021/05/19 09:57:00;;;;;;;6.75;1.70;;;;;;;;;;4373388;32;20214;-54
2021/05/19 09:59:26;;;;;;;8.35;2.45;;;;;;;;;;4373253;32;20325;-53
2021/05/19 10:01:53;;;;;;;7.22;1.75;;;;;;;;;;4373209;32;20296;-54
2021/05/19 10:04:21;;;;;;;4.25;2.17;;;;;;;;;;4373055;32;20230;-54
2021/05/19 10:06:48;;;;;;;8.70;2.12;;;;;;;;;;4372878;32;20202;-55
2021/05/19 10:09:13;;;;;;;5.20;1.48;;;;;;;;;;4359794;32;20234;-55
2021/05/19 10:11:41;;;;;;;3.95;1.90;;;;;;;;;;4359352;32;20331;-54
2021/05/19 10:14:10;;;;;;;6.22;1.52;;;;;;;;;;4372850;32;20309;-54
2021/05/19 10:16:37;;;;;;;2.33;1.12;;;;;;;;;;4372824;32;20233;-54
2021/05/19 10:19:03;;;;;;;3.80;1.52;;;;;;;;;;4372737;32;20289;-54
2021/05/19 10:21:31;;;;;;;11.90;1.52;;;;;;;;;;4373329;32;20696;-55
2021/05/19 10:24:04;;;;;;;7.22;2.10;;;;;;;;;;4372833;32;20249;-55
2021/05/19 10:26:32;;;;;;;10.38;1.05;;;;;;;;;;4372714;32;20194;-54
2021/05/19 10:28:59;;;;;;;2.22;1.12;;;;;;;;;;4371758;32;20225;-55
2021/05/19 10:31:29;;;;;;;4.43;0.75;;;;;;;;;;4372896;32;20213;-55
2021/05/19 10:34:01;;;;;;;4.03;1.15;;;;;;;;;;4372630;32;20300;-56
2021/05/19 10:36:37;;;;;;;1.65;0.85;;;;;;;;;;4372563;32;20206;-55
2021/05/19 10:39:09;;;;;;;1.48;0.90;;;;;;;;;;4371774;32;20732;-55
2021/05/19 10:41:46;;;;;;;2.47;1.25;;;;;;;;;;4371792;32;20296;-56
2021/05/19 10:44:21;;;;;;;2.70;1.35;;;;;;;;;;4372636;32;20241;-55
2021/05/19 10:47:04;;;;;;;3.87;0.93;;;;;;;;;;4372492;32;20217;-54
2021/05/19 10:58:57;;;;;;;3.97;1.42;;;;;;;;;;4371819;32;20287;-54
2021/05/19 11:01:37;;;;;;;1.90;0.95;;;;;;;;;;4372377;32;20249;-54
2021/05/19 11:04:23;;;;;;;2.75;1.35;;;;;;;;;;4372124;32;20654;-55
2021/05/19 11:07:01;;;;;;;1.73;1.00;;;;;;;;;;4372721;32;20206;-54
2021/05/19 11:09:40;;;;;;;3.12;1.58;;;;;;;;;;4372335;32;20284;-54
2021/05/19 11:12:27;;;;;;;4.07;1.92;;;;;;;;;;4372056;32;20636;-54
2021/05/19 11:20:05;;;;;;;1.45;0.90;;;;;;;;;;4372189;32;20781;-54
2021/05/19 11:22:31;;;;;;;5.43;1.20;;;;;;;;;;4372168;32;20278;-53
2021/05/19 11:24:58;;;;;;;6.68;1.90;;;;;;;;;;4371665;32;20344;-54
2021/05/19 11:27:26;;;;;;;6.40;1.05;;;;;;;;;;4372281;32;20276;-55
2021/05/19 11:29:53;;;;;;;6.62;1.20;;;;;;;;;;4372298;32;20226;-54
2021/05/19 11:32:25;;;;;;;1.98;1.02;;;;;;;;;;4372127;32;20210;-55
2021/05/19 11:34:52;;;;;;;8.35;1.17;;;;;;;;;;4372270;32;20304;-54
2021/05/19 11:37:19;;;;;;;6.28;1.20;;;;;;;;;;4372014;32;20214;-54
2021/05/19 11:39:49;;;;;;;8.15;1.30;;;;;;;;;;4372247;32;20213;-54
2021/05/19 11:42:20;;;;;;;3.75;1.65;;;;;;;;;;4371879;32;20248;-53
2021/05/19 11:44:58;;;;;;;1.30;0.90;;;;;;;;;;4372247;32;20260;-54
2021/05/19 11:47:37;;;;;;;4.68;0.85;;;;;;;;;;4372245;32;20210;-54
2021/05/19 11:50:10;;;;;;;10.13;2.67;;;;;;;;;;4371935;32;20301;-54
2021/05/19 11:53:04;;;;;;;4.22;1.40;;;;;;;;;;4371775;32;20272;-54
2021/05/19 11:55:32;;;;;;;2.42;0.88;;;;;;;;;;4366478;32;20643;-54
2021/05/19 11:58:06;;;;;;;1.23;0.73;;;;;;;;;;4371779;32;20360;-54
2021/05/19 12:00:37;;;;;;;3.03;1.10;;;;;;;;;;4372027;32;20198;-54
2021/05/19 12:03:04;;;;;;;1.08;0.70;;;;;;;;;;4371822;32;20293;-54
2021/05/19 12:05:47;;;;;;;3.17;0.70;;;;;;;;;;4371970;32;20267;-54
2021/05/19 12:08:14;;;;;;;2.17;0.80;;;;;;;;;;4371624;32;20551;-56
2021/05/19 12:10:41;;;;;;;4.35;0.93;;;;;;;;;;4358278;32;20306;-54
2021/05/19 12:13:07;;;;;;;4.05;1.10;;;;;;;;;;4371942;32;20297;-54
2021/05/19 12:15:35;;;;;;;2.28;1.05;;;;;;;;;;4371749;32;20728;-54
2021/05/19 12:18:03;;;;;;;2.08;0.73;;;;;;;;;;4371660;32;20589;-54
2021/05/19 12:20:29;;;;;;;1.95;0.80;;;;;;;;;;4372063;32;20232;-54
2021/05/19 12:22:58;;;;;;;3.40;1.40;;;;;;;;;;4371722;32;20237;-54
2021/05/19 12:25:24;;;;;;;1.65;0.95;;;;;;;;;;4371578;32;20202;-54
2021/05/19 12:27:52;;;;;;;4.12;1.25;;;;;;;;;;4371810;32;20528;-54
2021/05/19 12:30:19;;;;;;;7.47;1.25;;;;;;;;;;4371672;32;20247;-54
2021/05/19 12:33:06;;;;;;;2.70;0.80;;;;;;;;;;4371551;32;20202;-53
2021/05/19 12:35:32;;;;;;;10.85;0.90;;;;;;;;;;4371915;32;20205;-53
2021/05/19 12:38:00;;;;;;;4.85;0.68;;;;;;;;;;4374234;32;20331;-54
2021/05/19 12:40:29;;;;;;;2.83;1.00;;;;;;;;;;4371133;32;20287;-54
2021/05/19 12:43:02;;;;;;;6.78;1.15;;;;;;;;;;4374342;32;20226;-54
2021/05/19 12:45:31;;;;;;;8.30;1.35;;;;;;;;;;4374560;32;20515;-54
2021/05/19 12:48:14;;;;;;;1.50;0.88;;;;;;;;;;4374159;32;20726;-54
2021/05/19 12:51:06;;;;;;;4.72;1.00;;;;;;;;;;4374085;32;20343;-55
2021/05/19 12:53:36;;;;;;;2.97;1.75;;;;;;;;;;4370755;32;20251;-55
2021/05/19 12:56:06;;;;;;;1.90;0.88;;;;;;;;;;4374254;32;20272;-54
2021/05/19 12:59:05;;;;;;;12.32;1.48;;;;;;;;;;4360510;32;20436;-54
2021/05/19 13:01:45;;;;;;;7.18;1.48;;;;;;;;;;4369570;32;20260;-54
2021/05/19 13:04:11;;;;;;;8.52;1.48;;;;;;;;;;4374366;32;20218;-54
2021/05/19 13:06:37;;;;;;;7.25;1.62;;;;;;;;;;4374205;32;20221;-55
2021/05/19 13:09:06;;;;;;;1.98;1.48;;;;;;;;;;4374404;32;20628;-54
2021/05/19 13:11:33;;;;;;;1.33;0.75;;;;;;;;;;4374220;32;20266;-54
2021/05/19 13:14:01;;;;;;;6.20;1.02;;;;;;;;;;4374171;32;20380;-55
2021/05/19 13:16:34;;;;;;;3.85;1.15;;;;;;;;;;4374011;32;20227;-55
2021/05/19 13:19:08;;;;;;;3.25;1.40;;;;;;;;;;4373942;32;20298;-55
2021/05/19 13:24:12;;;;;;;2.47;0.80;;;;;;;;;;4374120;32;20265;-54
2021/05/19 13:26:40;;;;;;;5.97;1.27;;;;;;;;;;4373798;32;20213;-54
2021/05/19 13:29:07;;;;;;;4.30;1.52;;;;;;;;;;4373779;32;20610;-55
2021/05/19 13:31:41;;;;;;;2.80;1.00;;;;;;;;;;4373558;32;20285;-54
2021/05/19 13:36:45;;;;;;;4.78;0.93;;;;;;;;;;4373544;32;20883;-54
2021/05/19 13:39:18;;;;;;;3.35;1.00;;;;;;;;;;4373892;32;20242;-54
2021/05/19 13:41:47;;;;;;;3.08;0.80;;;;;;;;;;4373478;32;20447;-54
2021/05/19 13:44:13;;;;;;;9.77;1.50;;;;;;;;;;4372260;32;20668;-56
2021/05/19 13:46:46;;;;;;;10.15;4.53;;;;;;;;;;4373595;32;20319;-55
2021/05/19 13:52:03;;;;;;;3.17;1.30;;;;;;;;;;4373255;32;20530;-55
2021/05/19 13:54:31;;;;;;;5.57;2.10;;;;;;;;;;4373604;32;20256;-54
2021/05/19 13:56:57;;;;;;;2.83;1.30;;;;;;;;;;4373341;32;20599;-55
2021/05/19 13:59:23;;;;;;;1.58;1.00;;;;;;;;;;4373422;32;20315;-55
2021/05/19 14:01:49;;;;;;;4.95;1.05;;;;;;;;;;4372932;32;20626;-56
2021/05/19 14:04:16;;;;;;;6.35;0.98;;;;;;;;;;4373362;32;20234;-55
2021/05/19 14:06:42;;;;;;;2.87;0.80;;;;;;;;;;4372522;32;20206;-54
2021/05/19 14:09:08;;;;;;;4.35;0.70;;;;;;;;;;4372923;32;20227;-54
2021/05/19 14:27:27;;;;;;;1.42;0.80;;;;;;;;;;4373112;32;20326;-53
2021/05/19 14:29:53;;;;;;;1.77;0.70;;;;;;;;;;4373115;32;20285;-56
2021/05/19 14:32:22;;;;;;;3.42;0.80;;;;;;;;;;4372987;32;20351;-54
2021/05/19 14:34:52;;;;;;;14.75;2.08;;;;;;;;;;4372621;32;20285;-54
2021/05/19 14:43:18;;;;;;;5.68;1.23;;;;;;;;;;4372839;32;20377;-53
2021/05/19 15:01:49;;;;;;;4.68;1.08;;;;;;;;;;4372305;32;20656;-55
2021/05/19 15:04:16;;;;;;;8.10;1.40;;;;;;;;;;4372529;32;20309;-55
2021/05/19 15:06:42;;;;;;;4.78;1.40;;;;;;;;;;4372364;32;20241;-55
2021/05/19 15:09:11;;;;;;;2.00;1.15;;;;;;;;;;4372292;32;20528;-55
2021/05/19 15:11:37;;;;;;;3.33;0.95;;;;;;;;;;4372361;32;20242;-55
2021/05/19 15:14:03;;;;;;;5.00;1.42;;;;;;;;;;4372445;32;20222;-55
2021/05/19 15:16:29;;;;;;;3.83;1.67;;;;;;;;;;4372764;32;20304;-55
2021/05/19 15:18:55;;;;;;;9.77;1.40;;;;;;;;;;4372782;32;20614;-55
2021/05/19 15:21:20;;;;;;;4.70;1.30;;;;;;;;;;4372422;32;20300;-55
2021/05/19 15:23:47;;;;;;;12.00;1.77;;;;;;;;;;4371215;32;20646;-55
2021/05/19 15:26:15;;;;;;;8.93;1.23;;;;;;;;;;4370889;32;20315;-55
2021/05/19 15:28:40;;;;;;;7.28;1.30;;;;;;;;;;4371070;32;20249;-54
2021/05/19 15:31:06;;;;;;;9.10;1.67;;;;;;;;;;4371034;32;20386;-54
2021/05/19 15:33:31;;;;;;;4.15;1.30;;;;;;;;;;4370788;32;20780;-54
2021/05/19 15:36:03;;;;;;;3.10;1.10;;;;;;;;;;4370988;32;20309;-56
2021/05/19 15:38:29;;;;;;;8.00;1.55;;;;;;;;;;4372142;32;20597;-54
2021/05/19 15:40:55;;;;;;;5.87;1.67;;;;;;;;;;4371922;32;20348;-55
2021/05/19 15:43:20;;;;;;;5.18;1.50;;;;;;;;;;4371981;32;20222;-54
2021/05/19 15:45:45;;;;;;;3.25;1.10;;;;;;;;;;4372021;32;20641;-55